createdAt,value
2018-10-05T00:01:00.334Z,13.48
2018-10-05T00:03:28.744Z,16.42
2018-10-05T00:05:57.247Z,10.00
2018-10-05T00:08:25.678Z,13.30
2018-10-05T00:10:54.146Z,9.43
2018-10-05T00:13:22.597Z,15.08
2018-10-05T00:15:51.032Z,18.48
2018-10-05T00:18:19.465Z,19.32
2018-10-05T00:20:47.922Z,12.88
2018-10-05T00:23:16.382Z,15.13
2018-10-05T00:25:44.858Z,13.38
2018-10-05T00:28:13.307Z,15.25
2018-10-05T00:30:41.738Z,10.75
2018-10-05T00:33:10.193Z,12.95
2018-10-05T00:35:38.634Z,11.93
2018-10-05T00:38:07.204Z,15.63
2018-10-05T00:40:35.569Z,15.68
2018-10-05T00:43:04.006Z,9.75
2018-10-05T00:45:32.902Z,11.00
2018-10-05T00:48:01.370Z,9.38
2018-10-05T00:50:29.813Z,9.30
2018-10-05T00:52:59.253Z,15.43
2018-10-05T00:55:27.647Z,11.90
2018-10-05T00:57:56.101Z,13.05
2018-10-05T01:00:24.548Z,15.30
2018-10-05T01:02:53.030Z,16.77
2018-10-05T01:05:21.527Z,20.95
2018-10-05T01:07:50.122Z,17.75
2018-10-05T01:10:18.561Z,11.80
2018-10-05T01:12:47.002Z,11.65
2018-10-05T01:15:15.456Z,16.97
2018-10-05T01:17:43.904Z,18.70
2018-10-05T01:20:12.354Z,17.92
2018-10-05T01:22:40.845Z,19.40
2018-10-05T01:25:09.291Z,11.83
2018-10-05T01:27:37.966Z,15.78
2018-10-05T01:30:10.896Z,21.52
2018-10-05T01:32:39.866Z,16.90
2018-10-05T01:35:08.318Z,17.07
2018-10-05T01:37:37.030Z,17.57
2018-10-05T01:40:05.553Z,18.97
2018-10-05T01:42:33.983Z,18.57
2018-10-05T01:45:02.441Z,14.98
2018-10-05T01:47:30.905Z,16.70
2018-10-05T01:49:59.338Z,20.32
2018-10-05T01:52:27.776Z,16.23
2018-10-05T01:54:56.439Z,16.05
2018-10-05T01:57:24.880Z,15.40
2018-10-05T01:59:53.326Z,14.60
2018-10-05T02:02:21.801Z,18.37
2018-10-05T02:04:50.427Z,19.05
2018-10-05T02:07:18.925Z,20.35
2018-10-05T02:09:47.344Z,27.82
2018-10-05T02:12:16.257Z,19.37
2018-10-05T02:14:44.690Z,18.92
2018-10-05T02:17:13.226Z,17.48
2018-10-05T02:19:41.674Z,20.00
2018-10-05T02:22:10.115Z,23.55
2018-10-05T02:24:38.549Z,22.55
2018-10-05T02:27:07.006Z,13.95
2018-10-05T02:29:35.506Z,21.35
2018-10-05T02:32:03.971Z,16.82
2018-10-05T02:34:32.384Z,14.80
2018-10-05T02:37:01.072Z,13.75
2018-10-05T02:39:29.501Z,15.75
2018-10-05T02:41:57.948Z,15.93
2018-10-05T02:44:26.370Z,18.23
2018-10-05T02:46:54.837Z,21.93
2018-10-05T02:49:23.258Z,13.48
2018-10-05T02:51:51.680Z,17.75
2018-10-05T02:54:20.090Z,23.55
2018-10-05T02:56:48.542Z,20.95
2018-10-05T02:59:16.966Z,16.73
2018-10-05T03:01:56.520Z,15.48
2018-10-05T03:04:24.974Z,18.60
2018-10-05T03:06:53.462Z,16.05
2018-10-05T03:09:21.949Z,14.28
2018-10-05T03:11:50.414Z,15.53
2018-10-05T03:14:18.898Z,17.95
2018-10-05T03:16:47.399Z,16.60
2018-10-05T03:19:15.842Z,18.73
2018-10-05T03:21:44.347Z,21.62
2018-10-05T03:24:12.778Z,20.65
2018-10-05T03:26:41.278Z,18.50
2018-10-05T03:29:09.710Z,23.92
2018-10-05T03:31:38.226Z,16.37
2018-10-05T03:34:06.842Z,16.25
2018-10-05T03:36:35.306Z,20.85
2018-10-05T03:39:05.537Z,18.48
2018-10-05T03:41:34.007Z,19.15
2018-10-05T03:44:02.478Z,23.77
2018-10-05T03:46:31.745Z,24.27
2018-10-05T03:49:00.237Z,19.45
2018-10-05T03:51:28.695Z,23.77
2018-10-05T03:53:57.129Z,21.73
2018-10-05T03:56:25.585Z,21.87
2018-10-05T03:58:54.077Z,18.45
2018-10-05T04:01:22.542Z,20.88
2018-10-05T04:03:50.990Z,30.88
2018-10-05T04:06:19.513Z,29.07
2018-10-05T04:08:47.955Z,22.65
2018-10-05T04:11:16.452Z,22.90
2018-10-05T04:13:44.903Z,24.67
2018-10-05T04:16:13.356Z,21.25
2018-10-05T04:18:41.850Z,20.70
2018-10-05T04:21:10.339Z,20.20
2018-10-05T04:23:38.800Z,25.97
2018-10-05T04:26:07.273Z,25.92
2018-10-05T04:28:35.739Z,23.52
2018-10-05T04:31:04.217Z,23.80
2018-10-05T04:33:32.705Z,22.02
2018-10-05T04:36:01.195Z,23.57
2018-10-05T04:38:29.702Z,24.45
2018-10-05T04:40:58.290Z,27.70
2018-10-05T04:43:26.759Z,25.60
2018-10-05T04:45:55.258Z,18.50
2018-10-05T04:48:23.690Z,25.62
2018-10-05T04:50:52.402Z,22.80
2018-10-05T04:53:20.861Z,22.60
2018-10-05T04:55:49.336Z,28.57
2018-10-05T04:58:17.810Z,28.23
2018-10-05T05:00:46.292Z,24.80
2018-10-05T05:03:14.727Z,24.80
2018-10-05T05:05:43.229Z,20.57
2018-10-05T05:08:11.714Z,32.50
2018-10-05T05:10:40.205Z,30.90
2018-10-05T05:13:08.886Z,26.75
2018-10-05T05:15:37.399Z,21.77
2018-10-05T05:18:05.923Z,32.45
2018-10-05T05:20:34.624Z,20.80
2018-10-05T05:23:03.602Z,26.68
2018-10-05T05:25:32.141Z,25.17
2018-10-05T05:28:00.644Z,29.60
2018-10-05T05:30:29.101Z,24.35
2018-10-05T05:32:57.562Z,28.35
2018-10-05T05:35:26.009Z,28.20
2018-10-05T05:37:54.623Z,23.55
2018-10-05T05:40:28.279Z,21.90
2018-10-05T05:42:56.759Z,27.95
2018-10-05T05:45:25.296Z,22.60
2018-10-05T05:47:53.778Z,27.85
2018-10-05T05:50:22.246Z,28.45
2018-10-05T05:52:50.770Z,32.28
2018-10-05T05:55:19.727Z,29.63
2018-10-05T05:57:48.213Z,29.90
2018-10-05T06:00:16.743Z,27.90
2018-10-05T06:02:45.839Z,24.43
2018-10-05T06:05:14.550Z,29.07
2018-10-05T06:07:43.038Z,26.05
2018-10-05T06:10:11.507Z,24.43
2018-10-05T06:12:40.009Z,24.20
2018-10-05T06:15:08.518Z,23.80
2018-10-05T06:17:36.994Z,25.77
2018-10-05T06:20:06.222Z,26.25
2018-10-05T06:22:34.811Z,27.82
2018-10-05T06:25:03.240Z,23.65
2018-10-05T06:27:32.141Z,24.10
2018-10-05T06:32:36.504Z,24.07
2018-10-05T06:35:05.534Z,25.48
2018-10-05T06:37:34.110Z,25.90
2018-10-05T06:40:02.734Z,31.00
2018-10-05T06:42:31.365Z,26.93
2018-10-05T06:44:59.830Z,22.85
2018-10-05T06:47:28.417Z,23.40
2018-10-05T06:49:57.002Z,30.43
2018-10-05T06:52:25.514Z,24.85
2018-10-05T06:54:53.978Z,25.80
2018-10-05T06:57:22.481Z,24.85
2018-10-05T06:59:50.941Z,29.70
2018-10-05T07:02:19.408Z,31.60
2018-10-05T07:04:47.877Z,22.13
2018-10-05T07:07:16.410Z,26.10
2018-10-05T07:09:44.858Z,24.82
2018-10-05T07:12:13.385Z,27.97
2018-10-05T07:14:41.843Z,35.38
2018-10-05T07:17:10.332Z,20.47
2018-10-05T07:19:38.803Z,27.07
2018-10-05T07:22:07.325Z,29.77
2018-10-05T07:24:35.799Z,33.57
2018-10-05T07:27:04.355Z,23.45
2018-10-05T07:29:32.793Z,27.90
2018-10-05T07:32:01.283Z,27.50
2018-10-05T07:34:29.766Z,24.63
2018-10-05T07:36:58.292Z,25.43
2018-10-05T07:39:26.695Z,25.15
2018-10-05T07:41:55.189Z,32.25
2018-10-05T07:44:23.641Z,23.33
2018-10-05T07:46:52.111Z,27.70
2018-10-05T07:49:20.552Z,34.23
2018-10-05T07:51:49.089Z,26.60
2018-10-05T07:54:17.712Z,27.03
2018-10-05T07:56:49.874Z,29.20
2018-10-05T07:59:18.342Z,29.30
2018-10-05T08:01:47.051Z,29.10
2018-10-05T08:04:15.746Z,25.57
2018-10-05T08:06:44.242Z,33.20
2018-10-05T08:09:12.699Z,24.07
2018-10-05T08:11:41.162Z,25.77
2018-10-05T08:14:09.619Z,30.47
2018-10-05T08:16:38.101Z,23.40
2018-10-05T08:19:06.573Z,22.73
2018-10-05T08:21:35.151Z,22.43
2018-10-05T08:24:03.506Z,24.37
2018-10-05T08:26:31.966Z,22.60
2018-10-05T08:29:00.491Z,22.10
2018-10-05T08:31:28.957Z,20.13
2018-10-05T08:33:57.434Z,22.73
2018-10-05T08:36:25.901Z,22.30
2018-10-05T08:38:54.349Z,24.00
2018-10-05T08:41:22.877Z,24.17
2018-10-05T08:43:51.305Z,25.50
2018-10-05T08:46:19.789Z,22.87
2018-10-05T08:48:48.253Z,23.00
2018-10-05T08:51:16.738Z,21.23
2018-10-05T08:53:45.181Z,20.63
2018-10-05T08:56:13.654Z,22.53
2018-10-05T08:58:42.102Z,22.93
2018-10-05T09:01:10.561Z,21.60
2018-10-05T09:03:39.001Z,26.17
2018-10-05T09:06:07.518Z,19.37
2018-10-05T09:08:36.365Z,18.23
2018-10-05T09:11:04.996Z,20.10
2018-10-05T09:13:33.771Z,20.10
2018-10-05T09:16:02.768Z,21.53
2018-10-05T09:18:31.441Z,21.83
2018-10-05T09:20:59.918Z,22.00
2018-10-05T09:23:28.359Z,24.07
2018-10-05T09:25:56.905Z,18.13
2018-10-05T09:28:25.574Z,20.13
2018-10-05T09:30:54.089Z,23.70
2018-10-05T09:33:22.561Z,21.60
2018-10-05T09:35:51.046Z,24.43
2018-10-05T09:38:19.505Z,26.27
2018-10-05T09:40:47.985Z,26.63
2018-10-05T09:43:16.452Z,19.03
2018-10-05T09:45:44.911Z,22.23
2018-10-05T09:48:13.390Z,22.30
2018-10-05T09:50:41.845Z,24.33
2018-10-05T09:53:11.354Z,21.00
2018-10-05T09:55:39.858Z,20.53
2018-10-05T09:58:08.639Z,18.70
2018-10-05T10:00:42.337Z,17.20
2018-10-05T10:03:16.378Z,20.60
2018-10-05T10:05:44.910Z,17.50
2018-10-05T10:08:13.503Z,18.40
2018-10-05T10:10:41.929Z,17.33
2018-10-05T10:13:10.400Z,23.00
2018-10-05T10:15:38.850Z,19.60
2018-10-05T10:18:07.356Z,17.53
2018-10-05T10:20:35.997Z,15.20
2018-10-05T10:23:04.598Z,19.70
2018-10-05T10:25:33.366Z,21.90
2018-10-05T10:28:02.089Z,20.00
2018-10-05T10:30:30.650Z,18.33
2018-10-05T10:32:59.082Z,22.97
2018-10-05T10:35:27.545Z,17.53
2018-10-05T10:37:56.062Z,13.23
2018-10-05T10:40:24.593Z,17.23
2018-10-05T10:42:53.175Z,16.90
2018-10-05T10:45:21.659Z,11.37
2018-10-05T10:47:50.157Z,20.10
2018-10-05T10:50:18.615Z,14.60
2018-10-05T10:52:47.121Z,12.73
2018-10-05T10:55:15.610Z,15.90
2018-10-05T10:57:44.098Z,16.13
2018-10-05T11:00:12.666Z,16.77
2018-10-05T11:02:41.549Z,13.03
2018-10-05T11:05:10.053Z,13.23
2018-10-05T11:07:38.574Z,15.63
2018-10-05T11:10:07.029Z,18.40
2018-10-05T11:12:35.508Z,15.40
2018-10-05T11:15:04.064Z,12.17
2018-10-05T11:17:32.525Z,16.63
2018-10-05T11:20:00.995Z,14.00
2018-10-05T11:22:29.466Z,10.17
2018-10-05T11:24:58.767Z,15.77
2018-10-05T11:27:27.258Z,10.10
2018-10-05T11:29:55.726Z,11.27
2018-10-05T11:32:24.461Z,13.70
2018-10-05T11:34:53.056Z,10.20
2018-10-05T11:37:21.494Z,9.40
2018-10-05T11:39:49.930Z,9.57
2018-10-05T11:42:18.409Z,12.20
2018-10-05T11:44:47.081Z,11.27
2018-10-05T11:47:15.589Z,17.57
2018-10-05T11:49:44.031Z,11.20
2018-10-05T11:52:12.508Z,10.83
2018-10-05T11:54:40.961Z,18.40
2018-10-05T11:57:09.441Z,11.80
2018-10-05T11:59:37.970Z,10.57
2018-10-05T12:02:06.441Z,9.50
2018-10-05T12:04:34.945Z,12.70
2018-10-05T12:07:03.460Z,13.17
2018-10-05T12:09:31.925Z,10.63
2018-10-05T12:12:00.398Z,14.20
2018-10-05T12:14:28.853Z,11.37
2018-10-05T12:16:57.336Z,13.70
2018-10-05T12:19:25.801Z,8.40
2018-10-05T12:21:54.232Z,11.30
2018-10-05T12:24:22.708Z,13.07
2018-10-05T12:26:51.198Z,11.87
2018-10-05T12:29:19.668Z,12.67
2018-10-05T12:31:48.111Z,11.17
2018-10-05T12:34:16.590Z,11.37
2018-10-05T12:36:45.074Z,10.60
2018-10-05T12:39:13.514Z,11.47
2018-10-05T12:41:42.001Z,12.43
2018-10-05T12:44:10.480Z,13.10
2018-10-05T12:46:38.982Z,8.90
2018-10-05T12:49:07.542Z,10.20
2018-10-05T12:51:36.925Z,11.60
2018-10-05T12:54:05.370Z,10.30
2018-10-05T12:56:33.883Z,11.67
2018-10-05T12:59:02.315Z,14.60
2018-10-05T13:01:31.012Z,10.40
2018-10-05T13:03:59.453Z,11.90
2018-10-05T13:06:27.981Z,13.60
2018-10-05T13:08:56.429Z,10.03
2018-10-05T13:11:24.906Z,12.90
2018-10-05T13:13:53.353Z,8.17
2018-10-05T13:16:21.835Z,8.20
2018-10-05T13:18:50.282Z,8.30
2018-10-05T13:21:18.748Z,9.60
2018-10-05T13:23:47.196Z,10.53
2018-10-05T13:26:15.682Z,10.70
2018-10-05T13:28:44.467Z,10.30
2018-10-05T13:31:12.913Z,6.03
2018-10-05T13:33:41.359Z,14.27
2018-10-05T13:36:09.837Z,11.27
2018-10-05T13:38:38.309Z,11.10
2018-10-05T13:41:06.853Z,8.97
2018-10-05T13:43:35.318Z,9.33
2018-10-05T13:46:03.946Z,8.60
2018-10-05T13:48:32.422Z,9.80
2018-10-05T13:51:01.086Z,10.07
2018-10-05T13:53:29.575Z,9.37
2018-10-05T13:55:58.022Z,11.80
2018-10-05T13:58:26.531Z,10.20
2018-10-05T14:00:54.975Z,9.00
2018-10-05T14:03:23.653Z,6.73
2018-10-05T14:05:52.109Z,6.80
2018-10-05T14:08:20.577Z,9.70
2018-10-05T14:10:49.094Z,9.40
2018-10-05T14:13:17.797Z,11.27
2018-10-05T14:15:46.408Z,8.80
2018-10-05T14:18:15.074Z,9.30
2018-10-05T14:20:43.586Z,8.03
2018-10-05T14:23:12.013Z,12.00
2018-10-05T14:25:40.526Z,8.80
2018-10-05T14:28:08.937Z,10.53
2018-10-05T14:30:37.386Z,10.33
2018-10-05T14:33:05.838Z,8.10
2018-10-05T14:35:34.266Z,10.03
2018-10-05T14:38:02.789Z,8.80
2018-10-05T14:40:31.176Z,9.30
2018-10-05T14:42:59.638Z,10.70
2018-10-05T14:45:28.111Z,7.57
2018-10-05T14:47:56.567Z,8.20
2018-10-05T14:50:25.010Z,8.23
2018-10-05T14:52:53.495Z,11.80
2018-10-05T14:55:21.942Z,10.90
2018-10-05T14:57:50.437Z,8.10
2018-10-05T15:00:18.894Z,9.37
2018-10-05T15:02:47.590Z,9.60
2018-10-05T15:05:17.134Z,10.63
2018-10-05T15:07:45.594Z,10.67
2018-10-05T15:10:14.077Z,10.40
2018-10-05T15:12:42.617Z,11.23
2018-10-05T15:15:11.032Z,13.87
2018-10-05T15:17:39.568Z,7.00
2018-10-05T15:20:08.071Z,14.17
2018-10-05T15:22:36.552Z,7.00
2018-10-05T15:25:05.028Z,9.43
2018-10-05T15:27:33.907Z,8.27
2018-10-05T15:30:02.399Z,11.27
2018-10-05T15:32:30.958Z,10.70
2018-10-05T15:34:59.417Z,8.90
2018-10-05T15:37:27.930Z,10.63
2018-10-05T15:39:56.690Z,10.27
2018-10-05T15:42:25.211Z,10.33
2018-10-05T15:44:53.835Z,10.40
2018-10-05T15:47:22.403Z,9.60
2018-10-05T15:49:50.954Z,7.97
2018-10-05T15:52:19.425Z,7.53
2018-10-05T15:54:47.867Z,10.23
2018-10-05T15:57:16.355Z,11.63
2018-10-05T15:59:44.837Z,10.90
2018-10-05T16:02:13.345Z,11.23
2018-10-05T16:04:42.181Z,12.53
2018-10-05T16:07:10.789Z,9.93
2018-10-05T16:09:39.261Z,7.80
2018-10-05T16:12:07.834Z,9.53
2018-10-05T16:14:36.301Z,12.13
2018-10-05T16:17:04.760Z,10.70
2018-10-05T16:19:33.275Z,11.83
2018-10-05T16:22:01.773Z,9.57
2018-10-05T16:24:45.039Z,14.50
2018-10-05T16:27:13.837Z,11.80
2018-10-05T16:29:42.357Z,15.07
2018-10-05T16:32:11.335Z,11.90
2018-10-05T16:34:39.797Z,13.90
2018-10-05T16:37:08.296Z,12.67
2018-10-05T16:39:36.798Z,9.30
2018-10-05T16:42:05.817Z,13.00
2018-10-05T16:44:34.286Z,9.20
2018-10-05T16:47:02.854Z,11.70
2018-10-05T16:49:31.321Z,10.33
2018-10-05T16:51:59.814Z,14.33
2018-10-05T16:54:28.301Z,11.80
2018-10-05T16:56:56.863Z,11.63
2018-10-05T16:59:25.569Z,10.00
2018-10-05T17:01:54.081Z,13.60
2018-10-05T17:04:22.855Z,12.93
2018-10-05T17:06:51.429Z,11.50
2018-10-05T17:09:19.962Z,10.07
2018-10-05T17:11:48.465Z,8.80
2018-10-05T17:14:16.932Z,10.30
2018-10-05T17:16:45.411Z,7.50
2018-10-05T17:19:13.941Z,13.60
2018-10-05T17:21:42.530Z,11.23
2018-10-05T17:24:17.050Z,10.67
2018-10-05T17:26:45.549Z,14.07
2018-10-05T17:29:14.120Z,8.73
2018-10-05T17:31:42.585Z,12.20
2018-10-05T17:34:11.070Z,13.30
2018-10-05T17:36:39.537Z,11.40
2018-10-05T17:39:09.510Z,11.27
2018-10-05T17:41:38.005Z,12.00
2018-10-05T17:44:06.906Z,12.10
2018-10-05T17:46:35.450Z,12.03
2018-10-05T17:49:04.022Z,14.17
2018-10-05T17:51:32.530Z,12.73
2018-10-05T17:54:01.012Z,13.57
2018-10-05T17:56:29.507Z,14.67
2018-10-05T17:58:58.021Z,18.33
2018-10-05T18:01:26.574Z,19.43
2018-10-05T18:03:55.828Z,20.50
2018-10-05T18:06:24.454Z,15.33
2018-10-05T18:08:53.065Z,16.50
2018-10-05T18:11:21.766Z,15.67
2018-10-05T18:13:50.503Z,16.23
2018-10-05T18:16:20.512Z,11.67
2018-10-05T18:18:49.116Z,10.40
2018-10-05T18:21:17.589Z,11.50
2018-10-05T18:23:46.078Z,8.53
2018-10-05T18:26:14.542Z,11.43
2018-10-05T18:28:43.010Z,10.33
2018-10-05T18:31:11.462Z,8.93
2018-10-05T18:33:40.444Z,11.60
2018-10-05T18:36:08.876Z,13.63
2018-10-05T18:38:37.368Z,12.07
2018-10-05T18:41:05.853Z,15.20
2018-10-05T18:43:34.421Z,12.53
2018-10-05T18:46:02.928Z,10.90
2018-10-05T18:48:31.403Z,11.53
2018-10-05T18:50:59.904Z,12.00
2018-10-05T18:53:28.378Z,14.60
2018-10-05T18:56:08.622Z,13.37
2018-10-05T18:58:37.109Z,10.33
2018-10-05T19:01:05.641Z,12.17
2018-10-05T19:03:34.789Z,11.50
2018-10-05T19:06:03.692Z,17.97
2018-10-05T19:08:32.200Z,17.70
2018-10-05T19:11:00.687Z,12.60
2018-10-05T19:13:29.196Z,12.53
2018-10-05T19:15:57.709Z,16.63
2018-10-05T19:18:26.629Z,15.53
2018-10-05T19:20:55.344Z,10.23
2018-10-05T19:23:24.561Z,11.50
2018-10-05T19:25:53.473Z,10.30
2018-10-05T19:28:22.288Z,11.13
2018-10-05T19:30:51.695Z,14.30
2018-10-05T19:33:20.723Z,11.50
2018-10-05T19:35:49.476Z,10.93
2018-10-05T19:38:19.011Z,8.50
2018-10-05T19:40:47.741Z,8.13
2018-10-05T19:43:16.784Z,10.60
2018-10-05T19:45:45.290Z,8.97
2018-10-05T19:48:13.838Z,7.73
2018-10-05T19:50:42.315Z,10.50
2018-10-05T19:53:11.250Z,7.53
2018-10-05T19:55:39.676Z,9.80
2018-10-05T19:58:08.178Z,10.83
2018-10-05T20:00:36.655Z,10.67
2018-10-05T20:03:05.502Z,8.90
2018-10-05T20:05:34.191Z,12.73
2018-10-05T20:08:02.781Z,10.93
2018-10-05T20:10:31.305Z,10.40
2018-10-05T20:12:59.781Z,10.47
2018-10-05T20:15:28.333Z,9.60
2018-10-05T20:17:56.837Z,10.40
2018-10-05T20:20:25.220Z,11.90
2018-10-05T20:22:53.711Z,10.43
2018-10-05T20:25:23.276Z,12.17
2018-10-05T20:27:51.770Z,11.13
2018-10-05T20:30:20.236Z,13.03
2018-10-05T20:32:49.289Z,11.10
2018-10-05T20:35:17.870Z,12.10
2018-10-05T20:37:46.595Z,14.10
2018-10-05T20:40:14.950Z,13.63
2018-10-05T20:42:43.566Z,13.53
2018-10-05T20:45:12.137Z,12.57
2018-10-05T20:47:41.684Z,11.50
2018-10-05T20:50:10.402Z,12.53
2018-10-05T20:52:39.066Z,15.40
2018-10-05T20:55:07.652Z,14.10
2018-10-05T20:57:36.149Z,14.13
2018-10-05T21:00:05.157Z,12.47
2018-10-05T21:02:33.674Z,10.03
2018-10-05T21:05:02.173Z,10.37
2018-10-05T21:07:30.696Z,12.83
2018-10-05T21:09:59.161Z,15.80
2018-10-05T21:12:27.652Z,9.80
2018-10-05T21:14:56.334Z,12.17
2018-10-05T21:17:25.085Z,11.87
2018-10-05T21:19:53.576Z,10.70
2018-10-05T21:22:22.075Z,12.27
2018-10-05T21:24:50.565Z,12.07
2018-10-05T21:27:19.060Z,10.97
2018-10-05T21:29:47.601Z,8.90
2018-10-05T21:32:16.095Z,11.30
2018-10-05T21:34:44.822Z,12.87
2018-10-05T21:37:13.342Z,13.97
2018-10-05T21:39:41.817Z,13.17
2018-10-05T21:42:10.366Z,8.77
2018-10-05T21:44:38.858Z,9.77
2018-10-05T21:47:07.380Z,10.93
2018-10-05T21:49:35.891Z,12.00
2018-10-05T21:52:04.403Z,9.87
2018-10-05T21:54:32.961Z,8.50
2018-10-05T21:57:01.524Z,8.60
2018-10-05T21:59:29.994Z,10.40
2018-10-05T22:01:58.494Z,9.50
2018-10-05T22:04:27.019Z,9.20
2018-10-05T22:06:55.541Z,9.00
2018-10-05T22:09:24.034Z,11.10
2018-10-05T22:11:52.618Z,8.43
2018-10-05T22:14:21.105Z,13.10
2018-10-05T22:16:49.599Z,11.10
2018-10-05T22:19:18.174Z,8.53
2018-10-05T22:21:46.589Z,9.40
2018-10-05T22:24:15.086Z,12.43
2018-10-05T22:26:43.625Z,11.63
2018-10-05T22:29:12.130Z,9.73
2018-10-05T22:31:40.649Z,12.77
2018-10-05T22:34:09.130Z,10.13
2018-10-05T22:36:37.622Z,11.00
2018-10-05T22:39:06.534Z,10.30
2018-10-05T22:41:35.164Z,10.73
2018-10-05T22:44:03.657Z,11.93
2018-10-05T22:46:32.466Z,11.23
2018-10-05T22:49:01.209Z,18.60
2018-10-05T22:51:29.730Z,9.70
2018-10-05T22:53:58.203Z,12.40
2018-10-05T22:56:26.713Z,13.30
2018-10-05T22:58:55.181Z,9.80
2018-10-05T23:01:23.664Z,12.37
2018-10-05T23:03:52.150Z,11.50
2018-10-05T23:06:20.674Z,10.20
2018-10-05T23:08:49.195Z,12.43
2018-10-05T23:11:17.866Z,10.63
2018-10-05T23:13:46.374Z,11.10
2018-10-05T23:16:14.860Z,13.30
2018-10-05T23:18:43.327Z,11.87
2018-10-05T23:21:12.031Z,12.60
2018-10-05T23:23:40.539Z,13.30
2018-10-05T23:26:09.151Z,10.80
2018-10-05T23:28:37.610Z,9.97
2018-10-05T23:31:06.130Z,9.03
2018-10-05T23:33:34.567Z,11.03
2018-10-05T23:36:03.064Z,11.13
2018-10-05T23:38:31.501Z,11.27
2018-10-05T23:40:59.973Z,10.03
2018-10-05T23:43:28.570Z,11.90
2018-10-05T23:45:57.226Z,13.60
2018-10-05T23:48:25.713Z,10.30
2018-10-05T23:50:54.245Z,11.43
2018-10-05T23:53:22.786Z,12.03
2018-10-05T23:55:51.312Z,16.00
2018-10-05T23:58:19.777Z,11.10
